Time;durP1;ratioP1;P1;durP2;ratioP2;P2;SDS_P1;SDS_P2;PMS_P1;PMS_P2;Temp;Humidity;BMP_temperature;BMP_pressure;BME280_temperature;BME280_humidity;BME280_pressure;Samples;Min_cycle;Max_cycle;Signal;HPM_P1;HPM_P2
2022/03/02 00:00:16;;;;;;;17.83;11.30;;;3.00;96.20;;;;;;5001488;28;20315;-88
2022/03/02 00:02:43;;;;;;;20.23;11.32;;;2.80;95.90;;;;;;5004505;28;20215;-89
2022/03/02 00:05:13;;;;;;;25.10;11.07;;;2.80;95.60;;;;;;5004813;28;20272;-88
2022/03/02 00:48:08;;;;;;;19.65;11.40;;;3.00;96.10;;;;;;4999986;28;20166;-88
2022/03/02 00:50:36;;;;;;;17.38;11.20;;;2.90;96.50;;;;;;4998923;28;20208;-89
2022/03/02 00:53:07;;;;;;;16.85;11.40;;;3.00;96.40;;;;;;5004910;28;20239;-88
2022/03/02 00:55:36;;;;;;;20.58;12.45;;;3.00;96.10;;;;;;5000495;28;20646;-88
2022/03/02 00:58:05;;;;;;;21.17;11.57;;;2.90;96.10;;;;;;5006063;28;20286;-88
2022/03/02 01:00:32;;;;;;;18.70;11.55;;;2.80;96.10;;;;;;5013514;28;20204;-86
2022/03/02 01:02:59;;;;;;;18.98;12.18;;;2.80;96.30;;;;;;5017434;28;20216;-88
2022/03/02 01:05:27;;;;;;;17.75;12.63;;;3.00;96.60;;;;;;5013581;28;20577;-89
2022/03/02 01:07:54;;;;;;;19.98;12.30;;;3.00;96.80;;;;;;5001922;28;20268;-88
2022/03/02 01:10:22;;;;;;;19.10;11.40;;;3.20;96.80;;;;;;5001930;28;20236;-88
2022/03/02 01:12:49;;;;;;;18.85;13.50;;;3.20;96.10;;;;;;5012418;28;20287;-89
2022/03/02 01:15:16;;;;;;;17.90;11.43;;;3.00;96.00;;;;;;5002959;28;20232;-88
2022/03/02 01:17:43;;;;;;;18.58;11.48;;;3.00;96.40;;;;;;5000879;28;20284;-88
2022/03/02 01:20:12;;;;;;;17.00;10.35;;;2.80;96.60;;;;;;5000395;28;20237;-89
2022/03/02 01:22:41;;;;;;;19.33;11.98;;;2.80;96.70;;;;;;5000787;28;20311;-89
2022/03/02 01:25:09;;;;;;;18.08;11.93;;;3.00;97.10;;;;;;5000988;28;20236;-87
2022/03/02 01:27:36;;;;;;;24.08;12.05;;;2.70;97.30;;;;;;5001772;28;20212;-88
2022/03/02 01:30:04;;;;;;;17.35;11.30;;;2.80;97.50;;;;;;5002640;28;20297;-88
2022/03/02 01:32:31;;;;;;;17.42;11.68;;;2.70;97.50;;;;;;4999559;28;20719;-89
2022/03/02 01:34:57;;;;;;;20.77;13.13;;;2.90;97.50;;;;;;5000442;28;20751;-89
2022/03/02 01:37:24;;;;;;;22.00;13.07;;;2.80;97.40;;;;;;5001369;28;20705;-88
2022/03/02 01:39:53;;;;;;;22.52;12.77;;;2.90;97.20;;;;;;5000225;28;20701;-89
2022/03/02 01:42:20;;;;;;;21.25;11.85;;;2.80;97.30;;;;;;5003655;28;20238;-89
2022/03/02 01:44:46;;;;;;;20.70;12.15;;;3.00;97.20;;;;;;5006253;28;20233;-89
2022/03/02 01:47:13;;;;;;;18.70;11.85;;;2.90;97.20;;;;;;5007044;28;20264;-89
2022/03/02 01:49:40;;;;;;;19.10;11.75;;;2.90;97.60;;;;;;5009055;28;20268;-88
2022/03/02 01:52:07;;;;;;;25.92;14.27;;;2.80;97.60;;;;;;5006136;28;20255;-89
2022/03/02 01:54:37;;;;;;;21.58;11.80;;;3.00;97.70;;;;;;5009925;28;21901;-87
2022/03/02 01:57:06;;;;;;;17.77;11.25;;;2.80;97.50;;;;;;5009101;28;20206;-87
2022/03/02 01:59:33;;;;;;;19.88;11.98;;;2.90;97.60;;;;;;5000501;28;20245;-89
2022/03/02 02:02:00;;;;;;;18.40;11.80;;;2.90;97.30;;;;;;5001931;28;20572;-87
2022/03/02 02:04:27;;;;;;;16.80;11.93;;;2.80;97.40;;;;;;5002882;28;20213;-87
2022/03/02 02:06:54;;;;;;;18.05;10.88;;;3.00;97.00;;;;;;5007166;28;20193;-87
2022/03/02 02:09:21;;;;;;;15.30;10.15;;;2.80;97.40;;;;;;5005595;28;20593;-90
2022/03/02 02:11:48;;;;;;;16.58;11.45;;;2.70;97.80;;;;;;5003386;28;20702;-89
2022/03/02 02:14:16;;;;;;;15.93;10.80;;;2.70;98.10;;;;;;5004365;28;20212;-87
2022/03/02 02:16:43;;;;;;;21.80;11.43;;;2.70;98.30;;;;;;5004297;28;20704;-88
2022/03/02 02:19:10;;;;;;;17.55;10.55;;;2.60;98.40;;;;;;5005334;28;20228;-87
2022/03/02 02:21:38;;;;;;;17.60;11.43;;;2.60;98.40;;;;;;5004208;28;20239;-87
2022/03/02 02:24:06;;;;;;;22.90;11.95;;;2.60;98.30;;;;;;5007762;28;20220;-89
2022/03/02 02:26:35;;;;;;;24.23;12.20;;;2.70;98.40;;;;;;5015148;28;20224;-88
2022/03/02 02:29:02;;;;;;;17.95;11.90;;;2.60;98.50;;;;;;5002837;28;20258;-87
2022/03/02 02:31:30;;;;;;;18.90;11.68;;;2.50;99.20;;;;;;5004169;28;20204;-87
2022/03/02 02:33:57;;;;;;;17.55;12.15;;;2.40;99.60;;;;;;5006627;28;20332;-87
2022/03/02 02:36:26;;;;;;;15.27;11.70;;;2.10;99.90;;;;;;5004495;28;20245;-88
2022/03/02 02:38:55;;;;;;;18.08;11.23;;;2.20;99.90;;;;;;5002939;28;20290;-88
2022/03/02 02:41:22;;;;;;;18.90;11.45;;;1.80;99.90;;;;;;5002540;28;20208;-88
2022/03/02 02:43:50;;;;;;;19.48;11.55;;;2.20;99.90;;;;;;5006870;28;20213;-88
2022/03/02 02:46:17;;;;;;;17.10;11.85;;;2.30;99.90;;;;;;5031033;23;20235;-88
2022/03/02 02:48:44;;;;;;;20.77;12.38;;;2.20;99.90;;;;;;5019851;28;20246;-88
2022/03/02 02:51:11;;;;;;;20.73;12.50;;;2.10;99.90;;;;;;5018955;28;20235;-88
2022/03/02 02:53:37;;;;;;;19.90;10.65;;;2.10;99.90;;;;;;5019178;28;20208;-87
2022/03/02 02:56:06;;;;;;;17.50;11.68;;;2.30;99.90;;;;;;5019152;28;20758;-88
2022/03/02 02:58:34;;;;;;;18.63;12.25;;;2.20;99.90;;;;;;5020255;28;20238;-89
2022/03/02 03:01:02;;;;;;;18.00;11.50;;;1.90;99.90;;;;;;5021294;28;20223;-88
2022/03/02 03:03:29;;;;;;;20.83;13.73;;;2.20;99.90;;;;;;5020620;28;20211;-88
2022/03/02 03:05:56;;;;;;;16.63;11.23;;;2.00;99.90;;;;;;5021016;28;20220;-88
2022/03/02 03:08:23;;;;;;;22.00;12.10;;;2.10;99.90;;;;;;5033178;28;20207;-90
2022/03/02 03:10:51;;;;;;;20.10;12.45;;;2.10;99.90;;;;;;5034681;28;20202;-90
2022/03/02 03:13:19;;;;;;;19.25;12.25;;;1.90;99.90;;;;;;5028314;28;20196;-90
2022/03/02 03:15:47;;;;;;;20.17;12.20;;;2.00;99.90;;;;;;5020945;28;20247;-88
2022/03/02 03:18:14;;;;;;;20.80;11.73;;;1.90;99.90;;;;;;5022589;28;20640;-88
2022/03/02 03:20:41;;;;;;;18.42;10.93;;;2.20;99.90;;;;;;5022842;28;20245;-89
2022/03/02 03:23:09;;;;;;;17.65;11.30;;;2.20;99.90;;;;;;5022015;28;20203;-88
2022/03/02 03:25:36;;;;;;;17.38;11.93;;;2.20;99.90;;;;;;5021487;28;20216;-88
2022/03/02 03:28:04;;;;;;;18.27;11.55;;;1.90;99.90;;;;;;5020071;28;20207;-88
2022/03/02 03:30:33;;;;;;;18.98;12.18;;;2.10;99.90;;;;;;5019058;28;20227;-88
2022/03/02 03:33:02;;;;;;;21.60;11.48;;;1.90;99.90;;;;;;5018619;28;20203;-89
2022/03/02 03:35:29;;;;;;;20.70;11.70;;;1.70;99.90;;;;;;5018681;28;20228;-88
2022/03/02 03:37:57;;;;;;;19.95;12.18;;;2.10;99.90;;;;;;5018786;28;20243;-88
2022/03/02 03:40:25;;;;;;;17.70;11.85;;;1.80;99.90;;;;;;5018894;28;20223;-90
2022/03/02 03:42:53;;;;;;;19.73;12.35;;;1.90;99.90;;;;;;5018925;28;20213;-89
2022/03/02 03:45:21;;;;;;;18.48;11.45;;;2.00;99.90;;;;;;5019406;28;20250;-89
2022/03/02 03:47:50;;;;;;;17.52;10.15;;;1.80;99.90;;;;;;5035766;28;20176;-88
2022/03/02 03:50:17;;;;;;;19.20;11.68;;;2.00;99.90;;;;;;5030181;28;20251;-88
2022/03/02 03:52:44;;;;;;;17.77;11.57;;;2.10;99.90;;;;;;5029728;28;20203;-87
2022/03/02 03:55:13;;;;;;;19.20;12.82;;;2.00;99.90;;;;;;5037918;28;20222;-88
2022/03/02 03:57:41;;;;;;;15.50;11.32;;;1.90;99.90;;;;;;5025097;28;20217;-88
2022/03/02 04:00:12;;;;;;;19.13;11.88;;;1.70;99.90;;;;;;5030807;28;20342;-88
2022/03/02 04:02:39;;;;;;;20.42;13.65;;;1.80;99.90;;;;;;5026117;28;20210;-87
2022/03/02 04:05:08;;;;;;;22.15;12.35;;;1.90;99.90;;;;;;5027677;28;20239;-89
2022/03/02 04:07:36;;;;;;;21.58;11.98;;;1.70;99.90;;;;;;5018134;28;20553;-88
2022/03/02 04:10:03;;;;;;;21.52;12.60;;;1.90;99.90;;;;;;5026449;28;20199;-88
2022/03/02 04:12:30;;;;;;;17.00;11.57;;;2.00;99.90;;;;;;5022507;28;20222;-88
2022/03/02 04:14:57;;;;;;;17.30;10.82;;;1.80;99.90;;;;;;5020879;28;20265;-88
2022/03/02 04:17:24;;;;;;;18.60;12.00;;;1.90;99.90;;;;;;5018095;28;20208;-88
2022/03/02 04:19:58;;;;;;;15.20;10.63;;;1.70;99.90;;;;;;5020607;28;20286;-88
2022/03/02 04:22:26;;;;;;;18.98;11.23;;;1.60;99.90;;;;;;5019573;28;20234;-88
2022/03/02 04:25:14;;;;;;;21.83;11.38;;;1.50;99.90;;;;;;5018274;28;20211;-88
2022/03/02 04:27:41;;;;;;;19.00;10.88;;;1.70;99.90;;;;;;5018315;28;20266;-88
2022/03/02 04:30:10;;;;;;;18.73;12.35;;;1.40;99.90;;;;;;5025453;28;20206;-88
2022/03/02 04:32:37;;;;;;;18.20;12.63;;;1.50;99.90;;;;;;5029183;28;20199;-88
2022/03/02 04:35:08;;;;;;;18.77;11.55;;;1.60;99.90;;;;;;5020061;28;20294;-87
2022/03/02 04:37:36;;;;;;;18.65;11.73;;;1.60;99.90;;;;;;5018091;28;20269;-88
2022/03/02 04:40:04;;;;;;;16.08;10.52;;;1.80;99.90;;;;;;5018021;28;20274;-88
2022/03/02 04:42:31;;;;;;;19.52;11.10;;;1.40;99.90;;;;;;5019279;28;20234;-88
2022/03/02 04:44:58;;;;;;;21.88;11.43;;;1.70;99.90;;;;;;5019084;28;20250;-87
2022/03/02 04:47:25;;;;;;;18.63;10.95;;;1.50;99.90;;;;;;5018661;28;20277;-88
2022/03/02 04:49:53;;;;;;;22.60;10.40;;;1.70;99.90;;;;;;5034897;28;20222;-87
2022/03/02 04:52:20;;;;;;;17.83;11.23;;;1.60;99.90;;;;;;5033664;28;20649;-88
2022/03/02 04:55:06;;;;;;;20.85;11.68;;;1.60;99.90;;;;;;5018391;28;20199;-88
2022/03/02 04:57:34;;;;;;;15.45;11.00;;;1.40;99.90;;;;;;5019344;28;20223;-88
2022/03/02 05:00:06;;;;;;;19.60;11.35;;;1.50;99.90;;;;;;5034590;28;20227;-88
2022/03/02 05:02:33;;;;;;;18.67;11.55;;;1.40;99.90;;;;;;5020951;28;20192;-88
2022/03/02 05:05:00;;;;;;;18.45;12.55;;;1.50;99.90;;;;;;5019203;28;20210;-88
2022/03/02 05:07:28;;;;;;;17.50;10.80;;;1.30;99.90;;;;;;5032873;28;20218;-87
2022/03/02 05:09:56;;;;;;;18.40;11.07;;;1.40;99.90;;;;;;5037576;28;20222;-88
2022/03/02 05:12:23;;;;;;;19.73;11.63;;;1.20;99.90;;;;;;5028338;28;20212;-88
2022/03/02 05:14:53;;;;;;;21.20;12.98;;;1.40;99.90;;;;;;5036446;28;20198;-86
2022/03/02 05:17:23;;;;;;;20.48;11.73;;;1.50;99.90;;;;;;5027891;28;20184;-89
2022/03/02 05:19:59;;;;;;;16.17;11.65;;;1.20;99.90;;;;;;5021508;28;20222;-89
2022/03/02 05:22:26;;;;;;;20.77;11.52;;;1.30;99.90;;;;;;5021548;28;20563;-88
2022/03/02 05:24:53;;;;;;;19.52;11.73;;;1.20;99.90;;;;;;5022021;28;20215;-89
2022/03/02 05:27:21;;;;;;;17.58;10.98;;;1.10;99.90;;;;;;5022313;28;20208;-87
2022/03/02 05:29:48;;;;;;;20.75;11.93;;;1.30;99.90;;;;;;5022656;28;20231;-89
2022/03/02 05:32:15;;;;;;;22.05;11.93;;;1.10;99.90;;;;;;5021367;28;20265;-89
2022/03/02 05:34:42;;;;;;;21.10;11.13;;;1.30;99.90;;;;;;5021824;28;20208;-88
2022/03/02 05:37:09;;;;;;;18.13;11.50;;;1.10;99.90;;;;;;5023080;28;20224;-88
2022/03/02 05:39:36;;;;;;;17.10;11.75;;;1.30;99.90;;;;;;5021327;28;20263;-88
2022/03/02 05:42:04;;;;;;;20.25;12.95;;;1.50;99.90;;;;;;5020763;28;20627;-88
2022/03/02 05:44:33;;;;;;;22.02;12.68;;;1.30;99.90;;;;;;5021866;28;20211;-88
2022/03/02 05:47:00;;;;;;;19.05;12.80;;;1.40;99.90;;;;;;5035949;28;20231;-88
2022/03/02 05:49:27;;;;;;;26.45;13.02;;;1.40;99.90;;;;;;5027080;28;20633;-88
2022/03/02 05:51:54;;;;;;;19.63;11.82;;;1.30;99.90;;;;;;5025148;28;20199;-88
2022/03/02 05:54:21;;;;;;;20.40;12.02;;;1.20;99.90;;;;;;5039210;28;20191;-87
2022/03/02 05:56:51;;;;;;;19.35;12.48;;;1.30;99.90;;;;;;5039781;28;21074;-88
2022/03/02 05:59:18;;;;;;;19.13;12.73;;;1.50;99.90;;;;;;5039381;28;20208;-90
2022/03/02 06:01:47;;;;;;;20.02;11.38;;;1.40;99.90;;;;;;5036854;28;20223;-89
2022/03/02 06:04:14;;;;;;;20.50;12.05;;;1.50;99.90;;;;;;5038200;28;20199;-88
2022/03/02 06:06:44;;;;;;;18.38;11.82;;;1.30;99.90;;;;;;5030390;28;20231;-89
2022/03/02 06:09:14;;;;;;;24.20;13.93;;;1.40;99.90;;;;;;5027299;28;20207;-89
2022/03/02 06:11:43;;;;;;;17.50;11.30;;;1.60;99.90;;;;;;5023621;28;20196;-88
2022/03/02 06:14:11;;;;;;;22.92;12.48;;;1.60;99.90;;;;;;5023498;28;20203;-87
2022/03/02 06:16:38;;;;;;;18.88;12.48;;;1.70;99.90;;;;;;5022329;28;20274;-88
2022/03/02 06:19:07;;;;;;;17.63;12.15;;;1.80;99.90;;;;;;5020755;28;20211;-88
2022/03/02 06:21:37;;;;;;;24.15;12.60;;;2.00;99.90;;;;;;5022165;28;20234;-88
2022/03/02 06:24:05;;;;;;;20.02;12.38;;;2.00;99.90;;;;;;5025857;28;20203;-88
2022/03/02 06:26:33;;;;;;;20.88;11.82;;;2.20;99.90;;;;;;5027526;28;20223;-87
2022/03/02 06:29:00;;;;;;;22.80;12.27;;;2.20;99.90;;;;;;5027718;28;20716;-87
2022/03/02 06:31:28;;;;;;;20.30;12.85;;;2.20;99.90;;;;;;5019921;28;20200;-88
2022/03/02 06:33:55;;;;;;;20.33;13.93;;;2.30;99.90;;;;;;5021240;28;20207;-88
2022/03/02 06:36:24;;;;;;;18.55;12.07;;;2.20;99.90;;;;;;5023561;28;20231;-88
2022/03/02 06:38:51;;;;;;;21.55;12.40;;;2.30;99.90;;;;;;5024328;28;20585;-87
2022/03/02 06:41:29;;;;;;;19.58;13.10;;;2.30;99.90;;;;;;5027126;28;20230;-89
2022/03/02 06:44:02;;;;;;;25.60;12.25;;;2.50;99.90;;;;;;5029479;28;20191;-89
2022/03/02 06:46:55;;;;;;;24.30;12.25;;;2.40;99.90;;;;;;5030092;28;20243;-88
2022/03/02 06:49:26;;;;;;;19.23;11.23;;;2.40;99.90;;;;;;5031427;28;20238;-88
2022/03/02 06:52:00;;;;;;;23.33;12.50;;;2.50;99.90;;;;;;5031678;28;20219;-89
2022/03/02 06:54:30;;;;;;;21.20;11.70;;;2.50;99.90;;;;;;5032140;28;20189;-89
2022/03/02 06:56:58;;;;;;;22.17;13.27;;;2.50;99.90;;;;;;5031840;28;20224;-90
2022/03/02 06:59:51;;;;;;;21.90;12.93;;;2.50;99.90;;;;;;5031548;28;20200;-89
2022/03/02 07:02:24;;;;;;;27.33;12.20;;;2.50;99.90;;;;;;5030762;28;20314;-88
2022/03/02 07:04:54;;;;;;;22.45;12.90;;;2.70;99.90;;;;;;5032053;28;20188;-87
2022/03/02 07:07:22;;;;;;;21.80;14.02;;;3.00;99.80;;;;;;5030294;28;20211;-88
2022/03/02 07:09:50;;;;;;;21.13;13.45;;;2.70;99.60;;;;;;5034504;28;20208;-89
2022/03/02 07:12:19;;;;;;;29.27;14.60;;;2.70;99.70;;;;;;5032708;28;20243;-89
2022/03/02 07:14:54;;;;;;;15.10;11.35;;;2.90;99.50;;;;;;5030703;28;20224;-89
2022/03/02 07:17:22;;;;;;;22.40;12.45;;;3.10;99.20;;;;;;5038613;28;20201;-89
2022/03/02 07:19:49;;;;;;;20.20;12.10;;;3.20;99.10;;;;;;5034108;28;20200;-88
2022/03/02 07:22:21;;;;;;;23.75;12.85;;;3.10;98.80;;;;;;5026802;28;20307;-88
2022/03/02 07:24:54;;;;;;;19.73;12.57;;;3.40;99.30;;;;;;5030541;28;20196;-89
2022/03/02 07:27:23;;;;;;;22.85;13.82;;;3.20;98.90;;;;;;5037486;28;20248;-89
2022/03/02 07:29:52;;;;;;;22.02;13.02;;;3.20;98.90;;;;;;5029508;28;20204;-91
2022/03/02 07:32:23;;;;;;;19.85;13.48;;;3.20;99.00;;;;;;5022913;28;20203;-90
2022/03/02 07:34:56;;;;;;;20.83;13.55;;;3.10;98.70;;;;;;5023813;28;20295;-90
2022/03/02 07:37:24;;;;;;;24.55;11.80;;;3.30;98.70;;;;;;5024468;28;20189;-89
2022/03/02 07:39:53;;;;;;;22.42;13.63;;;3.20;98.20;;;;;;5023913;28;20208;-89
2022/03/02 07:42:23;;;;;;;25.73;14.68;;;3.40;98.00;;;;;;5037182;28;20219;-89
2022/03/02 07:44:51;;;;;;;24.23;14.02;;;3.60;98.00;;;;;;5032098;28;20195;-89
2022/03/02 07:47:31;;;;;;;22.45;15.07;;;3.50;97.60;;;;;;5023659;28;20215;-91
2022/03/02 07:50:01;;;;;;;22.42;12.98;;;3.60;97.60;;;;;;5020730;28;20203;-89
2022/03/02 07:52:32;;;;;;;27.13;13.80;;;3.20;97.20;;;;;;5022585;28;20184;-89
2022/03/02 07:55:51;;;;;;;20.50;13.00;;;3.40;97.10;;;;;;5026898;28;20346;-90
2022/03/02 08:04:09;;;;;;;21.67;12.75;;;3.90;97.00;;;;;;5022454;28;20213;-87
2022/03/02 08:06:47;;;;;;;21.75;13.60;;;4.00;97.20;;;;;;5031353;28;20239;-87
2022/03/02 08:09:15;;;;;;;23.13;14.27;;;3.90;97.30;;;;;;5024701;28;20212;-85
2022/03/02 08:11:42;;;;;;;23.25;13.85;;;4.00;97.40;;;;;;5024764;28;20235;-87
2022/03/02 08:14:14;;;;;;;23.65;14.50;;;4.10;97.40;;;;;;5023047;28;20230;-86
2022/03/02 08:16:43;;;;;;;23.95;13.43;;;4.10;97.20;;;;;;5023756;28;20228;-88
2022/03/02 08:19:11;;;;;;;21.23;13.38;;;4.20;96.60;;;;;;5025211;28;20234;-88
2022/03/02 08:21:41;;;;;;;23.98;13.30;;;4.10;96.20;;;;;;5036470;28;20677;-86
2022/03/02 08:24:10;;;;;;;29.67;15.20;;;4.10;96.20;;;;;;5029264;28;20271;-87
2022/03/02 08:26:39;;;;;;;27.85;14.88;;;4.00;96.40;;;;;;5021883;28;20224;-87
2022/03/02 08:29:12;;;;;;;22.15;15.02;;;4.20;95.90;;;;;;5022459;28;20228;-87
2022/03/02 08:31:46;;;;;;;22.48;13.50;;;4.30;96.00;;;;;;5021229;28;20668;-87
2022/03/02 08:34:16;;;;;;;28.45;13.18;;;4.40;96.00;;;;;;5021029;28;20289;-87
2022/03/02 08:36:54;;;;;;;24.77;13.88;;;4.70;95.50;;;;;;5021907;28;20247;-88
2022/03/02 08:39:21;;;;;;;22.85;14.05;;;4.70;95.50;;;;;;5036079;28;20217;-87
2022/03/02 08:41:55;;;;;;;23.33;13.65;;;4.80;94.80;;;;;;5036141;28;20231;-86
2022/03/02 08:44:22;;;;;;;26.25;15.02;;;5.10;94.60;;;;;;5033752;28;20235;-86
2022/03/02 08:46:51;;;;;;;27.42;14.75;;;5.00;94.20;;;;;;5050830;23;20321;-90
2022/03/02 08:49:20;;;;;;;21.65;14.85;;;5.00;94.10;;;;;;5032522;28;20264;-90
2022/03/02 08:51:50;;;;;;;21.23;14.43;;;5.40;93.80;;;;;;5025504;28;20202;-90
2022/03/02 08:54:19;;;;;;;20.30;12.85;;;5.30;93.70;;;;;;5021868;28;20599;-91
2022/03/02 08:56:48;;;;;;;40.15;15.40;;;5.10;93.30;;;;;;5028455;28;20232;-90
2022/03/02 08:59:18;;;;;;;23.63;15.50;;;5.10;93.90;;;;;;5030783;28;20205;-91
2022/03/02 09:01:51;;;;;;;24.33;14.60;;;5.20;94.50;;;;;;5024525;28;20330;-89
2022/03/02 09:04:19;;;;;;;22.95;14.98;;;5.30;94.70;;;;;;5022110;28;20213;-89
2022/03/02 09:06:47;;;;;;;25.77;15.88;;;5.10;95.00;;;;;;5021481;28;20264;-90
2022/03/02 09:09:16;;;;;;;27.23;14.60;;;5.20;94.60;;;;;;5028206;28;20238;-89
2022/03/02 09:11:44;;;;;;;31.08;16.25;;;5.20;94.20;;;;;;5024054;28;20301;-89
2022/03/02 09:14:14;;;;;;;34.50;16.45;;;5.30;93.90;;;;;;5023272;28;20326;-89
2022/03/02 09:16:44;;;;;;;24.58;14.43;;;5.50;93.40;;;;;;5035793;28;20284;-90
2022/03/02 09:19:13;;;;;;;22.95;14.05;;;5.70;93.30;;;;;;5039596;28;20214;-89
2022/03/02 09:21:41;;;;;;;26.58;16.30;;;5.80;93.40;;;;;;5033578;28;20222;-90
2022/03/02 09:24:11;;;;;;;30.65;16.85;;;5.80;93.20;;;;;;5023516;28;20626;-90
2022/03/02 09:26:39;;;;;;;22.77;14.65;;;5.50;93.20;;;;;;5023610;28;20649;-90
2022/03/02 09:29:07;;;;;;;23.83;15.20;;;5.30;93.10;;;;;;5023413;28;20218;-90
2022/03/02 09:31:36;;;;;;;24.85;15.43;;;6.00;93.10;;;;;;5038816;28;20215;-90
2022/03/02 09:34:06;;;;;;;22.77;14.32;;;5.40;92.70;;;;;;5040261;28;20182;-90
2022/03/02 09:36:39;;;;;;;25.77;15.75;;;5.80;92.60;;;;;;5039848;28;20238;-91
2022/03/02 09:39:10;;;;;;;22.88;14.60;;;5.90;93.00;;;;;;5035151;28;20194;-89
2022/03/02 09:41:48;;;;;;;19.98;13.18;;;5.90;93.10;;;;;;5029441;28;20614;-89
2022/03/02 09:44:19;;;;;;;23.08;13.60;;;5.60;92.30;;;;;;5026094;28;20213;-88
2022/03/02 09:47:04;;;;;;;20.95;13.35;;;5.90;91.70;;;;;;5038018;28;20317;-90
2022/03/02 09:49:34;;;;;;;32.80;18.92;;;6.40;90.90;;;;;;5040255;28;20193;-89
2022/03/02 09:52:08;;;;;;;33.28;21.73;;;6.40;90.80;;;;;;5039228;28;20183;-89
2022/03/02 09:54:37;;;;;;;20.38;13.95;;;6.70;91.00;;;;;;5038258;28;20210;-90
2022/03/02 09:57:08;;;;;;;23.70;15.23;;;6.80;90.40;;;;;;5025302;28;20230;-89
2022/03/02 09:59:37;;;;;;;30.98;19.17;;;6.90;89.30;;;;;;5022128;28;20663;-89
2022/03/02 10:02:06;;;;;;;25.90;17.27;;;6.90;87.50;;;;;;5021027;28;20415;-90
2022/03/02 10:04:35;;;;;;;20.63;14.77;;;7.20;86.80;;;;;;5025902;28;20202;-90
2022/03/02 10:10:05;;;;;;;22.58;14.00;;;7.20;85.20;;;;;;5027488;28;20194;-90
2022/03/02 10:12:33;;;;;;;20.23;14.13;;;7.20;85.10;;;;;;5020507;28;20207;-90
2022/03/02 10:15:00;;;;;;;20.42;13.90;;;7.50;84.80;;;;;;5020664;28;20203;-90
2022/03/02 10:17:33;;;;;;;23.50;14.77;;;7.60;84.40;;;;;;5021990;28;20235;-90
2022/03/02 10:20:04;;;;;;;24.83;15.00;;;7.40;85.80;;;;;;5025066;28;20195;-90
2022/03/02 10:23:05;;;;;;;25.55;15.35;;;7.50;86.40;;;;;;5032568;28;20242;-90
2022/03/02 10:26:03;;;;;;;22.00;14.63;;;7.70;85.70;;;;;;4997599;28;20227;-88
2022/03/02 10:28:40;;;;;;;20.08;13.02;;;7.70;83.90;;;;;;5022023;28;20685;-90
2022/03/02 10:31:22;;;;;;;22.17;14.40;;;7.60;83.60;;;;;;5026540;28;20778;-90
2022/03/02 10:33:54;;;;;;;21.83;14.10;;;7.70;84.20;;;;;;5032232;28;20192;-90
2022/03/02 10:36:24;;;;;;;18.70;14.10;;;8.00;82.90;;;;;;5024481;28;20835;-90
2022/03/02 10:39:05;;;;;;;18.55;12.88;;;8.00;81.20;;;;;;5023967;28;20420;-90
2022/03/02 10:41:39;;;;;;;19.02;12.30;;;7.90;80.50;;;;;;5024515;28;20195;-90
2022/03/02 10:44:11;;;;;;;20.25;13.20;;;7.90;80.20;;;;;;5024903;28;20233;-90
2022/03/02 10:46:42;;;;;;;19.07;14.30;;;8.10;80.00;;;;;;5021324;28;20621;-91
2022/03/02 10:49:15;;;;;;;23.30;12.90;;;8.00;80.10;;;;;;5023798;28;20441;-91
2022/03/02 10:51:43;;;;;;;22.77;14.60;;;8.00;81.00;;;;;;5028326;28;20485;-91
2022/03/02 10:54:17;;;;;;;28.23;14.03;;;8.20;81.10;;;;;;5024368;28;20439;-90
2022/03/02 10:56:44;;;;;;;29.03;15.57;;;8.40;80.00;;;;;;5026008;28;20479;-90
2022/03/02 10:59:16;;;;;;;23.57;14.67;;;8.40;80.00;;;;;;5032224;28;20446;-91
2022/03/02 11:01:45;;;;;;;18.87;13.10;;;8.50;80.30;;;;;;5031394;28;20423;-90
2022/03/02 11:04:13;;;;;;;23.27;15.40;;;8.10;80.80;;;;;;5023504;28;20458;-89
2022/03/02 11:06:40;;;;;;;19.67;13.90;;;7.80;82.10;;;;;;5034002;28;20266;-90
2022/03/02 11:09:08;;;;;;;22.77;13.95;;;7.80;82.70;;;;;;5028377;28;20457;-90
2022/03/02 11:11:36;;;;;;;23.10;14.15;;;7.80;82.00;;;;;;5027727;28;20321;-90
2022/03/02 11:14:05;;;;;;;19.40;14.52;;;7.90;82.40;;;;;;5023459;28;20207;-90
2022/03/02 11:16:32;;;;;;;19.80;14.40;;;7.70;82.70;;;;;;5025387;28;20262;-90
2022/03/02 11:19:11;;;;;;;28.50;17.73;;;7.80;83.10;;;;;;5033685;28;20449;-89
2022/03/02 11:21:41;;;;;;;21.02;13.25;;;8.00;82.50;;;;;;5035320;28;20510;-89
2022/03/02 11:24:09;;;;;;;17.70;11.55;;;8.10;81.40;;;;;;5027449;28;20210;-90
2022/03/02 11:26:40;;;;;;;22.40;13.95;;;8.10;80.30;;;;;;5025006;28;20401;-90
2022/03/02 11:29:11;;;;;;;20.40;13.20;;;8.00;80.70;;;;;;5029342;28;20212;-90
2022/03/02 11:31:41;;;;;;;21.47;14.20;;;8.20;80.70;;;;;;5020364;28;20508;-89
2022/03/02 11:34:13;;;;;;;24.10;13.60;;;8.40;80.40;;;;;;5025062;28;20497;-90
2022/03/02 11:36:42;;;;;;;26.13;15.02;;;8.50;79.90;;;;;;5019653;28;20223;-90
2022/03/02 11:39:10;;;;;;;21.58;13.05;;;8.40;79.70;;;;;;5018284;28;20211;-90
2022/03/02 11:41:40;;;;;;;23.13;14.05;;;8.30;79.80;;;;;;5018704;28;20215;-90
2022/03/02 11:44:28;;;;;;;23.07;13.77;;;8.30;79.40;;;;;;5019246;28;20684;-90
2022/03/02 11:46:56;;;;;;;23.67;13.48;;;8.20;79.70;;;;;;5021540;28;20573;-90
2022/03/02 11:49:39;;;;;;;21.53;14.67;;;8.20;79.40;;;;;;5020607;28;20261;-90
2022/03/02 11:52:09;;;;;;;18.10;13.38;;;8.30;79.10;;;;;;5020354;28;20423;-90
2022/03/02 11:54:56;;;;;;;19.88;12.70;;;8.20;79.20;;;;;;5019393;28;20204;-89
2022/03/02 11:57:26;;;;;;;22.73;13.60;;;8.20;79.40;;;;;;5019702;28;20235;-90
2022/03/02 12:00:07;;;;;;;24.90;14.67;;;8.40;79.60;;;;;;5017503;28;20502;-89
2022/03/02 12:02:43;;;;;;;25.23;14.73;;;8.50;79.20;;;;;;5017940;28;20955;-90
2022/03/02 12:05:10;;;;;;;20.50;14.20;;;8.60;78.70;;;;;;5017850;28;20450;-89
2022/03/02 12:07:39;;;;;;;20.27;14.13;;;8.60;78.30;;;;;;5016595;28;20453;-89
2022/03/02 12:10:17;;;;;;;18.02;13.10;;;8.90;77.70;;;;;;5019124;28;20542;-90
2022/03/02 12:12:46;;;;;;;17.50;12.70;;;9.00;75.80;;;;;;5018556;28;20228;-90
2022/03/02 12:15:14;;;;;;;20.60;12.90;;;8.80;74.70;;;;;;5018953;28;20513;-91
2022/03/02 12:17:41;;;;;;;15.10;11.53;;;8.60;74.90;;;;;;5021470;28;20525;-89
2022/03/02 12:20:11;;;;;;;20.60;13.37;;;8.60;74.30;;;;;;5022978;28;20831;-89
2022/03/02 12:22:40;;;;;;;15.50;10.20;;;8.80;74.00;;;;;;5025489;28;20486;-90
2022/03/02 12:25:10;;;;;;;19.00;12.33;;;9.00;71.00;;;;;;5031550;28;20230;-89
2022/03/02 12:27:37;;;;;;;20.03;11.73;;;8.80;70.50;;;;;;5020533;28;20541;-89
2022/03/02 12:30:08;;;;;;;20.23;10.30;;;8.80;72.00;;;;;;5032290;28;20568;-91
2022/03/02 12:32:38;;;;;;;17.10;10.70;;;8.90;71.90;;;;;;5029865;28;20446;-90
2022/03/02 12:35:08;;;;;;;20.13;12.90;;;8.90;70.20;;;;;;5031020;28;20542;-90
2022/03/02 12:37:36;;;;;;;16.10;12.40;;;8.90;70.50;;;;;;5027159;28;20470;-90
2022/03/02 12:40:06;;;;;;;24.10;14.80;;;9.00;71.60;;;;;;5032987;28;20438;-90
2022/03/02 12:42:34;;;;;;;27.23;16.60;;;9.00;72.90;;;;;;5031347;28;20483;-90
2022/03/02 12:45:01;;;;;;;16.73;12.77;;;9.10;72.90;;;;;;5034849;28;20454;-90
2022/03/02 12:47:31;;;;;;;19.07;12.80;;;9.30;70.50;;;;;;5026579;28;20532;-90
2022/03/02 12:49:59;;;;;;;20.98;14.77;;;9.40;70.60;;;;;;5028611;28;20788;-91
2022/03/02 12:52:28;;;;;;;21.30;12.57;;;9.40;70.20;;;;;;5024821;28;20216;-91
2022/03/02 12:54:56;;;;;;;19.07;14.93;;;9.20;70.00;;;;;;5020212;28;20520;-91
2022/03/02 12:57:25;;;;;;;17.57;12.93;;;9.20;70.30;;;;;;5024023;28;20506;-91
2022/03/02 12:59:53;;;;;;;20.57;13.93;;;9.20;70.00;;;;;;5020255;28;20470;-91
2022/03/02 13:02:22;;;;;;;18.60;13.43;;;9.10;70.50;;;;;;5018537;28;20541;-89
2022/03/02 13:05:13;;;;;;;19.17;12.90;;;9.10;70.80;;;;;;5018038;28;20446;-90
2022/03/02 13:07:51;;;;;;;24.20;14.00;;;9.20;71.00;;;;;;5018590;28;20465;-91
2022/03/02 13:10:22;;;;;;;17.57;12.70;;;9.20;72.30;;;;;;5030822;28;20431;-91
2022/03/02 13:12:54;;;;;;;20.60;11.60;;;9.20;71.20;;;;;;5027120;28;20459;-91
2022/03/02 13:15:42;;;;;;;19.97;11.90;;;9.20;70.80;;;;;;5027967;28;20492;-90
2022/03/02 13:18:16;;;;;;;20.10;12.63;;;9.20;70.40;;;;;;5022808;28;20505;-89
2022/03/02 13:20:47;;;;;;;17.47;11.70;;;8.90;70.90;;;;;;5027428;28;20810;-87
2022/03/02 13:23:15;;;;;;;18.70;11.97;;;9.10;70.80;;;;;;5017119;28;21044;-89
2022/03/02 13:26:08;;;;;;;16.60;12.70;;;9.20;69.10;;;;;;5017015;28;20829;-89
2022/03/02 13:28:37;;;;;;;14.90;12.23;;;9.20;68.90;;;;;;5018547;28;20473;-89
2022/03/02 13:31:09;;;;;;;16.90;10.97;;;9.20;68.80;;;;;;5020003;28;20513;-89
2022/03/02 13:34:06;;;;;;;15.47;10.40;;;9.30;68.00;;;;;;5019425;28;20525;-89
2022/03/02 13:36:36;;;;;;;15.40;11.13;;;9.30;68.40;;;;;;5019689;28;20854;-89
2022/03/02 13:39:10;;;;;;;16.30;11.47;;;9.20;65.70;;;;;;5023974;28;20516;-89